METAR Data

Data at: 1826 UTC 21 Nov 2018

METAR for:KBOS (Boston/Logan Intl, MA, US)
Text:KBOS 211754Z 22016G21KT 10SM FEW050 OVC095 05/M04 A2987 RMK AO2 SLP115 T00501039 10050 20006 56038
Temperature: 5.0°C ( 41°F)
Dewpoint: -3.9°C ( 25°F) [RH = 52%]
Pressure (altimeter):29.87 inches Hg (1011.6 mb) [Sea level pressure: 1011.5 mb]
Winds:from the SW (220 degrees) at 18 MPH (16 knots; 8.2 m/s) gusting to 24 MPH (21 knots; 10.8 m/s)
Visibility:10 or more sm (16+ km)
Ceiling:9500 feet AGL
Clouds: few clouds at 5000 feet AGL, overcast cloud deck at 9500 feet AGL